sensor_id;sensor_type;location;lat;lon;timestamp;P1;durP1;ratioP1;P2;durP2;ratioP2
51326;SDS011;37412;52.836;6.362;2023-04-23T00:02:33;26.15;;;22.60;;
51326;SDS011;37412;52.836;6.362;2023-04-23T00:05:20;29.23;;;23.40;;
51326;SDS011;37412;52.836;6.362;2023-04-23T00:08:11;28.27;;;23.63;;
51326;SDS011;37412;52.836;6.362;2023-04-23T00:10:59;30.70;;;24.00;;
51326;SDS011;37412;52.836;6.362;2023-04-23T00:13:46;30.43;;;24.40;;
51326;SDS011;37412;52.836;6.362;2023-04-23T00:16:33;31.25;;;24.95;;
51326;SDS011;37412;52.836;6.362;2023-04-23T00:19:19;30.10;;;24.45;;
51326;SDS011;37412;52.836;6.362;2023-04-23T00:22:05;30.30;;;24.87;;
51326;SDS011;37412;52.836;6.362;2023-04-23T00:24:52;28.97;;;24.17;;
51326;SDS011;37412;52.836;6.362;2023-04-23T00:27:38;28.17;;;23.67;;
51326;SDS011;37412;52.836;6.362;2023-04-23T00:30:24;30.05;;;24.55;;
51326;SDS011;37412;52.836;6.362;2023-04-23T00:33:09;30.23;;;24.58;;
51326;SDS011;37412;52.836;6.362;2023-04-23T00:35:55;32.92;;;25.55;;
51326;SDS011;37412;52.836;6.362;2023-04-23T00:38:41;33.08;;;26.10;;
51326;SDS011;37412;52.836;6.362;2023-04-23T00:41:27;31.98;;;25.60;;
51326;SDS011;37412;52.836;6.362;2023-04-23T00:44:13;32.30;;;25.85;;
51326;SDS011;37412;52.836;6.362;2023-04-23T00:46:59;32.20;;;26.27;;
51326;SDS011;37412;52.836;6.362;2023-04-23T00:49:46;33.00;;;27.42;;
51326;SDS011;37412;52.836;6.362;2023-04-23T00:52:37;37.30;;;29.33;;
51326;SDS011;37412;52.836;6.362;2023-04-23T00:55:25;38.13;;;29.42;;
51326;SDS011;37412;52.836;6.362;2023-04-23T00:58:11;41.87;;;31.87;;
51326;SDS011;37412;52.836;6.362;2023-04-23T01:00:57;43.30;;;32.97;;
51326;SDS011;37412;52.836;6.362;2023-04-23T01:03:43;47.88;;;36.22;;
51326;SDS011;37412;52.836;6.362;2023-04-23T01:06:29;51.33;;;37.67;;
51326;SDS011;37412;52.836;6.362;2023-04-23T01:09:16;54.23;;;39.77;;
51326;SDS011;37412;52.836;6.362;2023-04-23T01:12:03;58.38;;;41.38;;
51326;SDS011;37412;52.836;6.362;2023-04-23T01:14:50;55.60;;;40.57;;
51326;SDS011;37412;52.836;6.362;2023-04-23T01:17:36;56.67;;;42.00;;
51326;SDS011;37412;52.836;6.362;2023-04-23T01:20:23;60.97;;;43.35;;
51326;SDS011;37412;52.836;6.362;2023-04-23T01:23:09;61.50;;;43.57;;
51326;SDS011;37412;52.836;6.362;2023-04-23T01:25:56;62.35;;;43.95;;
51326;SDS011;37412;52.836;6.362;2023-04-23T01:28:43;63.63;;;44.63;;
51326;SDS011;37412;52.836;6.362;2023-04-23T01:31:30;66.00;;;45.95;;
51326;SDS011;37412;52.836;6.362;2023-04-23T01:34:17;64.95;;;46.20;;
51326;SDS011;37412;52.836;6.362;2023-04-23T01:37:04;71.18;;;49.33;;
51326;SDS011;37412;52.836;6.362;2023-04-23T01:39:50;72.43;;;50.13;;
51326;SDS011;37412;52.836;6.362;2023-04-23T01:42:36;73.45;;;51.13;;
51326;SDS011;37412;52.836;6.362;2023-04-23T01:45:23;73.38;;;50.67;;
51326;SDS011;37412;52.836;6.362;2023-04-23T01:48:09;69.38;;;50.10;;
51326;SDS011;37412;52.836;6.362;2023-04-23T01:50:55;72.68;;;51.05;;
51326;SDS011;37412;52.836;6.362;2023-04-23T01:53:41;70.72;;;50.63;;
51326;SDS011;37412;52.836;6.362;2023-04-23T01:56:27;71.45;;;50.83;;
51326;SDS011;37412;52.836;6.362;2023-04-23T01:59:14;73.90;;;53.03;;
51326;SDS011;37412;52.836;6.362;2023-04-23T02:02:00;72.63;;;51.22;;
51326;SDS011;37412;52.836;6.362;2023-04-23T02:04:46;69.53;;;49.47;;
51326;SDS011;37412;52.836;6.362;2023-04-23T02:07:34;67.28;;;49.38;;
51326;SDS011;37412;52.836;6.362;2023-04-23T02:10:21;66.95;;;49.10;;
51326;SDS011;37412;52.836;6.362;2023-04-23T02:13:07;65.68;;;48.72;;
51326;SDS011;37412;52.836;6.362;2023-04-23T02:15:53;65.53;;;47.97;;
51326;SDS011;37412;52.836;6.362;2023-04-23T02:18:39;65.10;;;48.60;;
51326;SDS011;37412;52.836;6.362;2023-04-23T02:21:25;63.50;;;47.47;;
51326;SDS011;37412;52.836;6.362;2023-04-23T02:24:11;65.57;;;47.75;;
51326;SDS011;37412;52.836;6.362;2023-04-23T02:26:57;65.78;;;47.92;;
51326;SDS011;37412;52.836;6.362;2023-04-23T02:29:43;65.75;;;48.20;;
51326;SDS011;37412;52.836;6.362;2023-04-23T02:32:30;65.25;;;47.97;;
51326;SDS011;37412;52.836;6.362;2023-04-23T02:35:16;63.70;;;47.07;;
51326;SDS011;37412;52.836;6.362;2023-04-23T02:38:02;64.65;;;49.08;;
51326;SDS011;37412;52.836;6.362;2023-04-23T02:40:47;65.63;;;49.08;;
51326;SDS011;37412;52.836;6.362;2023-04-23T02:43:33;69.30;;;49.93;;
51326;SDS011;37412;52.836;6.362;2023-04-23T02:46:19;65.93;;;49.15;;
51326;SDS011;37412;52.836;6.362;2023-04-23T02:49:05;64.65;;;47.97;;
51326;SDS011;37412;52.836;6.362;2023-04-23T02:51:51;62.70;;;46.63;;
51326;SDS011;37412;52.836;6.362;2023-04-23T02:54:37;59.08;;;43.95;;
51326;SDS011;37412;52.836;6.362;2023-04-23T02:57:23;60.55;;;43.60;;
51326;SDS011;37412;52.836;6.362;2023-04-23T03:00:09;57.83;;;44.20;;
51326;SDS011;37412;52.836;6.362;2023-04-23T03:02:56;68.32;;;49.03;;
51326;SDS011;37412;52.836;6.362;2023-04-23T03:05:42;68.53;;;50.10;;
51326;SDS011;37412;52.836;6.362;2023-04-23T03:08:28;76.20;;;53.97;;
51326;SDS011;37412;52.836;6.362;2023-04-23T03:11:14;75.22;;;53.17;;
51326;SDS011;37412;52.836;6.362;2023-04-23T03:14:00;80.05;;;55.05;;
51326;SDS011;37412;52.836;6.362;2023-04-23T03:16:46;95.00;;;56.78;;
51326;SDS011;37412;52.836;6.362;2023-04-23T03:19:32;100.93;;;58.60;;
51326;SDS011;37412;52.836;6.362;2023-04-23T03:22:18;107.97;;;59.17;;
51326;SDS011;37412;52.836;6.362;2023-04-23T03:25:04;212.10;;;59.67;;
51326;SDS011;37412;52.836;6.362;2023-04-23T03:27:51;251.32;;;61.72;;
51326;SDS011;37412;52.836;6.362;2023-04-23T03:30:37;162.45;;;59.05;;
51326;SDS011;37412;52.836;6.362;2023-04-23T03:33:23;278.20;;;61.55;;
51326;SDS011;37412;52.836;6.362;2023-04-23T03:36:09;275.23;;;61.03;;
51326;SDS011;37412;52.836;6.362;2023-04-23T03:38:55;161.07;;;57.78;;
51326;SDS011;37412;52.836;6.362;2023-04-23T03:41:41;277.55;;;61.90;;
51326;SDS011;37412;52.836;6.362;2023-04-23T03:44:27;195.43;;;61.50;;
51326;SDS011;37412;52.836;6.362;2023-04-23T03:47:13;266.48;;;60.35;;
51326;SDS011;37412;52.836;6.362;2023-04-23T03:49:59;368.15;;;67.93;;
51326;SDS011;37412;52.836;6.362;2023-04-23T03:52:44;229.05;;;65.90;;
51326;SDS011;37412;52.836;6.362;2023-04-23T03:55:30;248.05;;;65.40;;
51326;SDS011;37412;52.836;6.362;2023-04-23T03:58:16;170.85;;;65.47;;
51326;SDS011;37412;52.836;6.362;2023-04-23T04:01:02;201.20;;;66.68;;
51326;SDS011;37412;52.836;6.362;2023-04-23T04:03:48;172.40;;;64.82;;
51326;SDS011;37412;52.836;6.362;2023-04-23T04:06:34;153.07;;;63.50;;
51326;SDS011;37412;52.836;6.362;2023-04-23T04:09:20;224.85;;;64.90;;
51326;SDS011;37412;52.836;6.362;2023-04-23T04:12:06;199.23;;;63.17;;
51326;SDS011;37412;52.836;6.362;2023-04-23T04:14:52;208.98;;;63.25;;
51326;SDS011;37412;52.836;6.362;2023-04-23T04:17:38;230.60;;;64.75;;
51326;SDS011;37412;52.836;6.362;2023-04-23T04:20:24;247.18;;;65.68;;
51326;SDS011;37412;52.836;6.362;2023-04-23T04:23:13;149.18;;;64.50;;
51326;SDS011;37412;52.836;6.362;2023-04-23T04:25:59;251.73;;;65.95;;
51326;SDS011;37412;52.836;6.362;2023-04-23T04:28:45;194.13;;;64.97;;
51326;SDS011;37412;52.836;6.362;2023-04-23T04:31:31;173.02;;;64.63;;
51326;SDS011;37412;52.836;6.362;2023-04-23T04:34:17;161.80;;;65.20;;
51326;SDS011;37412;52.836;6.362;2023-04-23T04:37:04;186.70;;;65.03;;
51326;SDS011;37412;52.836;6.362;2023-04-23T04:39:50;133.90;;;64.82;;
51326;SDS011;37412;52.836;6.362;2023-04-23T04:42:36;110.00;;;64.50;;
51326;SDS011;37412;52.836;6.362;2023-04-23T04:45:23;106.60;;;64.13;;
51326;SDS011;37412;52.836;6.362;2023-04-23T04:48:10;109.63;;;65.03;;
51326;SDS011;37412;52.836;6.362;2023-04-23T04:50:56;100.50;;;64.47;;
51326;SDS011;37412;52.836;6.362;2023-04-23T04:53:42;106.65;;;65.35;;
51326;SDS011;37412;52.836;6.362;2023-04-23T04:56:28;115.97;;;67.45;;
51326;SDS011;37412;52.836;6.362;2023-04-23T04:59:14;117.93;;;70.63;;
51326;SDS011;37412;52.836;6.362;2023-04-23T05:02:00;119.63;;;68.78;;
51326;SDS011;37412;52.836;6.362;2023-04-23T05:04:45;121.57;;;69.85;;
51326;SDS011;37412;52.836;6.362;2023-04-23T05:07:31;117.40;;;69.88;;
51326;SDS011;37412;52.836;6.362;2023-04-23T05:10:17;115.50;;;68.43;;
51326;SDS011;37412;52.836;6.362;2023-04-23T05:13:03;119.33;;;70.53;;
51326;SDS011;37412;52.836;6.362;2023-04-23T05:15:49;115.10;;;69.78;;
51326;SDS011;37412;52.836;6.362;2023-04-23T05:18:35;109.53;;;67.18;;
51326;SDS011;37412;52.836;6.362;2023-04-23T05:21:21;112.40;;;67.90;;
51326;SDS011;37412;52.836;6.362;2023-04-23T05:24:07;116.97;;;69.70;;
51326;SDS011;37412;52.836;6.362;2023-04-23T05:26:53;113.03;;;67.30;;
51326;SDS011;37412;52.836;6.362;2023-04-23T05:29:39;110.80;;;68.05;;
51326;SDS011;37412;52.836;6.362;2023-04-23T05:32:25;107.90;;;66.80;;
51326;SDS011;37412;52.836;6.362;2023-04-23T05:35:11;104.88;;;66.32;;
51326;SDS011;37412;52.836;6.362;2023-04-23T05:37:57;108.28;;;66.40;;
51326;SDS011;37412;52.836;6.362;2023-04-23T05:40:44;101.20;;;63.08;;
51326;SDS011;37412;52.836;6.362;2023-04-23T05:43:30;97.20;;;62.67;;
51326;SDS011;37412;52.836;6.362;2023-04-23T05:46:16;99.88;;;64.28;;
51326;SDS011;37412;52.836;6.362;2023-04-23T05:49:03;96.32;;;61.45;;
51326;SDS011;37412;52.836;6.362;2023-04-23T05:51:48;94.93;;;62.33;;
51326;SDS011;37412;52.836;6.362;2023-04-23T05:54:36;96.72;;;62.05;;
51326;SDS011;37412;52.836;6.362;2023-04-23T05:57:21;89.82;;;59.90;;
51326;SDS011;37412;52.836;6.362;2023-04-23T06:00:07;90.23;;;59.93;;
51326;SDS011;37412;52.836;6.362;2023-04-23T06:02:54;88.35;;;58.80;;
51326;SDS011;37412;52.836;6.362;2023-04-23T06:05:40;84.40;;;57.42;;
51326;SDS011;37412;52.836;6.362;2023-04-23T06:08:27;82.30;;;56.87;;
51326;SDS011;37412;52.836;6.362;2023-04-23T06:11:13;80.63;;;55.47;;
51326;SDS011;37412;52.836;6.362;2023-04-23T06:13:59;76.75;;;54.08;;
51326;SDS011;37412;52.836;6.362;2023-04-23T06:16:45;80.45;;;54.38;;
51326;SDS011;37412;52.836;6.362;2023-04-23T06:19:31;73.57;;;53.20;;
51326;SDS011;37412;52.836;6.362;2023-04-23T06:22:17;76.68;;;53.30;;
51326;SDS011;37412;52.836;6.362;2023-04-23T06:25:03;74.60;;;52.97;;
51326;SDS011;37412;52.836;6.362;2023-04-23T06:27:49;72.07;;;50.15;;
51326;SDS011;37412;52.836;6.362;2023-04-23T06:30:35;66.95;;;49.95;;
51326;SDS011;37412;52.836;6.362;2023-04-23T06:33:21;66.93;;;48.67;;
51326;SDS011;37412;52.836;6.362;2023-04-23T06:36:07;69.35;;;49.17;;
51326;SDS011;37412;52.836;6.362;2023-04-23T06:38:56;62.95;;;47.05;;
51326;SDS011;37412;52.836;6.362;2023-04-23T06:41:42;61.90;;;46.05;;
51326;SDS011;37412;52.836;6.362;2023-04-23T06:44:28;60.63;;;46.47;;
51326;SDS011;37412;52.836;6.362;2023-04-23T06:47:14;61.55;;;46.10;;
51326;SDS011;37412;52.836;6.362;2023-04-23T06:50:00;57.70;;;42.70;;
51326;SDS011;37412;52.836;6.362;2023-04-23T06:52:46;57.92;;;44.28;;
51326;SDS011;37412;52.836;6.362;2023-04-23T06:55:32;57.95;;;43.60;;
51326;SDS011;37412;52.836;6.362;2023-04-23T06:58:18;54.60;;;42.03;;
51326;SDS011;37412;52.836;6.362;2023-04-23T07:01:04;53.25;;;41.13;;
51326;SDS011;37412;52.836;6.362;2023-04-23T07:03:51;53.60;;;40.75;;
51326;SDS011;37412;52.836;6.362;2023-04-23T07:06:38;51.00;;;40.63;;
51326;SDS011;37412;52.836;6.362;2023-04-23T07:09:25;50.67;;;39.85;;
51326;SDS011;37412;52.836;6.362;2023-04-23T07:12:12;49.33;;;38.10;;
51326;SDS011;37412;52.836;6.362;2023-04-23T07:14:58;47.95;;;37.53;;
51326;SDS011;37412;52.836;6.362;2023-04-23T07:17:43;48.47;;;37.88;;
51326;SDS011;37412;52.836;6.362;2023-04-23T07:20:30;46.55;;;35.95;;
51326;SDS011;37412;52.836;6.362;2023-04-23T07:23:16;43.60;;;34.35;;
51326;SDS011;37412;52.836;6.362;2023-04-23T07:26:02;43.23;;;34.50;;
51326;SDS011;37412;52.836;6.362;2023-04-23T07:28:48;42.45;;;33.15;;
51326;SDS011;37412;52.836;6.362;2023-04-23T07:31:35;41.97;;;33.83;;
51326;SDS011;37412;52.836;6.362;2023-04-23T07:34:21;41.15;;;32.75;;
51326;SDS011;37412;52.836;6.362;2023-04-23T07:37:07;39.50;;;31.52;;
51326;SDS011;37412;52.836;6.362;2023-04-23T07:39:53;39.53;;;31.27;;
51326;SDS011;37412;52.836;6.362;2023-04-23T07:42:39;36.72;;;30.52;;
51326;SDS011;37412;52.836;6.362;2023-04-23T07:45:25;38.67;;;30.97;;
51326;SDS011;37412;52.836;6.362;2023-04-23T07:48:11;35.80;;;29.20;;
51326;SDS011;37412;52.836;6.362;2023-04-23T07:50:57;34.70;;;28.42;;
51326;SDS011;37412;52.836;6.362;2023-04-23T07:53:43;34.75;;;29.15;;
51326;SDS011;37412;52.836;6.362;2023-04-23T07:56:31;33.20;;;27.73;;
51326;SDS011;37412;52.836;6.362;2023-04-23T07:59:17;31.95;;;27.00;;
51326;SDS011;37412;52.836;6.362;2023-04-23T08:02:03;30.95;;;25.85;;
51326;SDS011;37412;52.836;6.362;2023-04-23T08:04:49;28.83;;;25.27;;
51326;SDS011;37412;52.836;6.362;2023-04-23T08:07:35;28.92;;;24.98;;
51326;SDS011;37412;52.836;6.362;2023-04-23T08:10:21;27.90;;;24.33;;
51326;SDS011;37412;52.836;6.362;2023-04-23T08:13:07;26.87;;;23.37;;
51326;SDS011;37412;52.836;6.362;2023-04-23T08:15:53;27.30;;;22.95;;
51326;SDS011;37412;52.836;6.362;2023-04-23T08:18:39;26.92;;;22.05;;
51326;SDS011;37412;52.836;6.362;2023-04-23T08:21:25;24.55;;;20.60;;
51326;SDS011;37412;52.836;6.362;2023-04-23T08:24:11;23.20;;;20.00;;
51326;SDS011;37412;52.836;6.362;2023-04-23T08:26:57;22.00;;;19.60;;
51326;SDS011;37412;52.836;6.362;2023-04-23T08:29:43;22.77;;;19.45;;
51326;SDS011;37412;52.836;6.362;2023-04-23T08:32:29;23.30;;;19.50;;
51326;SDS011;37412;52.836;6.362;2023-04-23T08:35:15;22.00;;;19.25;;
51326;SDS011;37412;52.836;6.362;2023-04-23T08:38:01;21.38;;;18.17;;
51326;SDS011;37412;52.836;6.362;2023-04-23T08:40:47;20.50;;;17.63;;
51326;SDS011;37412;52.836;6.362;2023-04-23T08:46:58;20.40;;;17.20;;
51326;SDS011;37412;52.836;6.362;2023-04-23T08:49:51;20.23;;;17.57;;
51326;SDS011;37412;52.836;6.362;2023-04-23T08:52:45;18.60;;;15.75;;
51326;SDS011;37412;52.836;6.362;2023-04-23T08:55:34;16.75;;;14.57;;
51326;SDS011;37412;52.836;6.362;2023-04-23T08:58:21;17.15;;;13.95;;
51326;SDS011;37412;52.836;6.362;2023-04-23T09:01:07;17.98;;;14.23;;
51326;SDS011;37412;52.836;6.362;2023-04-23T09:03:54;16.63;;;13.38;;
51326;SDS011;37412;52.836;6.362;2023-04-23T09:06:40;15.90;;;13.15;;
51326;SDS011;37412;52.836;6.362;2023-04-23T09:09:27;16.30;;;12.40;;
51326;SDS011;37412;52.836;6.362;2023-04-23T09:12:14;14.23;;;11.30;;
51326;SDS011;37412;52.836;6.362;2023-04-23T09:15:01;15.90;;;12.23;;
51326;SDS011;37412;52.836;6.362;2023-04-23T09:17:54;14.18;;;11.05;;
51326;SDS011;37412;52.836;6.362;2023-04-23T09:20:40;15.77;;;11.88;;
51326;SDS011;37412;52.836;6.362;2023-04-23T09:23:26;13.30;;;10.55;;
51326;SDS011;37412;52.836;6.362;2023-04-23T09:26:18;12.60;;;10.00;;
51326;SDS011;37412;52.836;6.362;2023-04-23T09:29:11;12.65;;;9.88;;
51326;SDS011;37412;52.836;6.362;2023-04-23T09:32:04;13.02;;;10.55;;
51326;SDS011;37412;52.836;6.362;2023-04-23T09:34:54;15.05;;;11.00;;
51326;SDS011;37412;52.836;6.362;2023-04-23T09:37:42;12.38;;;9.50;;
51326;SDS011;37412;52.836;6.362;2023-04-23T09:40:32;12.80;;;9.57;;
51326;SDS011;37412;52.836;6.362;2023-04-23T09:43:18;14.63;;;10.32;;
51326;SDS011;37412;52.836;6.362;2023-04-23T09:46:04;13.15;;;10.15;;
51326;SDS011;37412;52.836;6.362;2023-04-23T09:48:50;12.27;;;9.47;;
51326;SDS011;37412;52.836;6.362;2023-04-23T09:51:37;13.13;;;9.82;;
51326;SDS011;37412;52.836;6.362;2023-04-23T09:54:31;13.23;;;10.10;;
51326;SDS011;37412;52.836;6.362;2023-04-23T09:57:17;13.00;;;9.25;;
51326;SDS011;37412;52.836;6.362;2023-04-23T10:00:16;10.57;;;8.38;;
51326;SDS011;37412;52.836;6.362;2023-04-23T10:03:07;11.60;;;8.40;;
51326;SDS011;37412;52.836;6.362;2023-04-23T10:05:54;11.33;;;9.20;;
51326;SDS011;37412;52.836;6.362;2023-04-23T10:08:40;12.57;;;9.13;;
51326;SDS011;37412;52.836;6.362;2023-04-23T10:11:28;10.98;;;8.50;;
51326;SDS011;37412;52.836;6.362;2023-04-23T10:14:14;11.80;;;8.70;;
51326;SDS011;37412;52.836;6.362;2023-04-23T10:17:01;11.35;;;8.55;;
51326;SDS011;37412;52.836;6.362;2023-04-23T10:19:48;10.45;;;8.00;;
51326;SDS011;37412;52.836;6.362;2023-04-23T10:22:36;10.70;;;7.17;;
51326;SDS011;37412;52.836;6.362;2023-04-23T10:25:23;9.25;;;6.65;;
51326;SDS011;37412;52.836;6.362;2023-04-23T10:28:10;9.15;;;6.78;;
51326;SDS011;37412;52.836;6.362;2023-04-23T10:31:00;9.45;;;6.57;;
51326;SDS011;37412;52.836;6.362;2023-04-23T10:33:48;7.90;;;6.13;;
51326;SDS011;37412;52.836;6.362;2023-04-23T10:36:38;8.25;;;6.20;;
51326;SDS011;37412;52.836;6.362;2023-04-23T10:39:26;6.73;;;4.80;;
51326;SDS011;37412;52.836;6.362;2023-04-23T10:42:15;6.70;;;4.63;;
51326;SDS011;37412;52.836;6.362;2023-04-23T10:45:02;7.10;;;4.50;;
51326;SDS011;37412;52.836;6.362;2023-04-23T10:47:56;7.18;;;4.32;;
51326;SDS011;37412;52.836;6.362;2023-04-23T10:50:43;5.78;;;4.10;;
51326;SDS011;37412;52.836;6.362;2023-04-23T10:53:31;5.97;;;3.65;;
51326;SDS011;37412;52.836;6.362;2023-04-23T10:56:20;5.40;;;3.22;;
51326;SDS011;37412;52.836;6.362;2023-04-23T10:59:16;6.20;;;3.93;;
51326;SDS011;37412;52.836;6.362;2023-04-23T11:02:11;5.75;;;3.60;;
51326;SDS011;37412;52.836;6.362;2023-04-23T11:04:57;5.88;;;3.40;;
51326;SDS011;37412;52.836;6.362;2023-04-23T11:08:00;5.75;;;3.47;;
51326;SDS011;37412;52.836;6.362;2023-04-23T11:10:54;5.03;;;2.42;;
51326;SDS011;37412;52.836;6.362;2023-04-23T11:13:51;6.57;;;3.30;;
51326;SDS011;37412;52.836;6.362;2023-04-23T11:16:39;6.30;;;3.15;;
51326;SDS011;37412;52.836;6.362;2023-04-23T11:19:25;5.78;;;3.20;;
51326;SDS011;37412;52.836;6.362;2023-04-23T11:22:15;7.00;;;3.03;;
51326;SDS011;37412;52.836;6.362;2023-04-23T11:25:13;5.60;;;3.40;;
51326;SDS011;37412;52.836;6.362;2023-04-23T11:28:06;4.32;;;3.10;;
51326;SDS011;37412;52.836;6.362;2023-04-23T11:30:52;6.47;;;3.08;;
51326;SDS011;37412;52.836;6.362;2023-04-23T11:33:38;4.30;;;3.00;;
51326;SDS011;37412;52.836;6.362;2023-04-23T11:36:24;5.45;;;2.88;;
51326;SDS011;37412;52.836;6.362;2023-04-23T11:39:12;4.13;;;3.07;;
51326;SDS011;37412;52.836;6.362;2023-04-23T11:41:57;5.35;;;3.17;;
51326;SDS011;37412;52.836;6.362;2023-04-23T11:44:47;5.30;;;3.00;;
51326;SDS011;37412;52.836;6.362;2023-04-23T11:47:33;4.57;;;2.57;;
51326;SDS011;37412;52.836;6.362;2023-04-23T11:50:19;4.22;;;2.25;;
51326;SDS011;37412;52.836;6.362;2023-04-23T11:53:17;4.90;;;2.30;;
51326;SDS011;37412;52.836;6.362;2023-04-23T11:56:06;4.40;;;2.50;;
51326;SDS011;37412;52.836;6.362;2023-04-23T11:58:58;5.65;;;2.70;;
51326;SDS011;37412;52.836;6.362;2023-04-23T12:01:48;6.13;;;2.45;;
51326;SDS011;37412;52.836;6.362;2023-04-23T12:04:37;3.83;;;2.30;;
51326;SDS011;37412;52.836;6.362;2023-04-23T12:07:30;4.28;;;1.98;;
51326;SDS011;37412;52.836;6.362;2023-04-23T12:10:17;4.18;;;1.80;;
51326;SDS011;37412;52.836;6.362;2023-04-23T12:13:11;4.03;;;1.90;;
51326;SDS011;37412;52.836;6.362;2023-04-23T12:15:59;4.68;;;2.08;;
51326;SDS011;37412;52.836;6.362;2023-04-23T12:18:46;6.18;;;2.10;;
51326;SDS011;37412;52.836;6.362;2023-04-23T12:21:59;3.67;;;1.73;;
51326;SDS011;37412;52.836;6.362;2023-04-23T12:24:48;5.53;;;2.10;;
51326;SDS011;37412;52.836;6.362;2023-04-23T12:27:39;6.40;;;2.00;;
51326;SDS011;37412;52.836;6.362;2023-04-23T12:30:27;4.97;;;1.80;;
51326;SDS011;37412;52.836;6.362;2023-04-23T12:33:14;5.00;;;1.55;;
51326;SDS011;37412;52.836;6.362;2023-04-23T12:36:00;5.22;;;2.00;;
51326;SDS011;37412;52.836;6.362;2023-04-23T12:38:46;4.57;;;1.75;;
51326;SDS011;37412;52.836;6.362;2023-04-23T12:41:32;3.25;;;1.38;;
51326;SDS011;37412;52.836;6.362;2023-04-23T12:44:18;4.47;;;1.60;;
51326;SDS011;37412;52.836;6.362;2023-04-23T12:47:09;5.30;;;1.70;;
51326;SDS011;37412;52.836;6.362;2023-04-23T12:49:55;4.37;;;1.30;;
51326;SDS011;37412;52.836;6.362;2023-04-23T12:52:42;3.40;;;1.50;;
51326;SDS011;37412;52.836;6.362;2023-04-23T12:55:28;4.00;;;1.38;;
51326;SDS011;37412;52.836;6.362;2023-04-23T12:58:14;4.75;;;1.50;;
51326;SDS011;37412;52.836;6.362;2023-04-23T13:01:00;3.00;;;1.17;;
51326;SDS011;37412;52.836;6.362;2023-04-23T13:03:46;4.38;;;1.40;;
51326;SDS011;37412;52.836;6.362;2023-04-23T13:06:32;4.10;;;1.30;;
51326;SDS011;37412;52.836;6.362;2023-04-23T13:09:18;3.63;;;1.17;;
51326;SDS011;37412;52.836;6.362;2023-04-23T13:12:06;2.93;;;1.27;;
51326;SDS011;37412;52.836;6.362;2023-04-23T13:14:55;4.05;;;1.20;;
51326;SDS011;37412;52.836;6.362;2023-04-23T13:17:41;3.73;;;1.23;;
51326;SDS011;37412;52.836;6.362;2023-04-23T13:20:27;3.03;;;1.10;;
51326;SDS011;37412;52.836;6.362;2023-04-23T13:23:13;2.70;;;1.00;;
51326;SDS011;37412;52.836;6.362;2023-04-23T13:25:58;4.15;;;1.48;;
51326;SDS011;37412;52.836;6.362;2023-04-23T13:28:44;3.83;;;1.17;;
51326;SDS011;37412;52.836;6.362;2023-04-23T13:31:30;4.57;;;1.25;;
51326;SDS011;37412;52.836;6.362;2023-04-23T13:34:17;3.72;;;1.10;;
51326;SDS011;37412;52.836;6.362;2023-04-23T13:37:03;4.45;;;1.10;;
51326;SDS011;37412;52.836;6.362;2023-04-23T13:39:50;4.03;;;1.10;;
51326;SDS011;37412;52.836;6.362;2023-04-23T13:42:36;3.10;;;1.17;;
51326;SDS011;37412;52.836;6.362;2023-04-23T13:45:22;2.73;;;1.03;;
51326;SDS011;37412;52.836;6.362;2023-04-23T13:48:08;4.20;;;0.98;;
51326;SDS011;37412;52.836;6.362;2023-04-23T13:50:54;2.90;;;1.00;;
51326;SDS011;37412;52.836;6.362;2023-04-23T13:53:40;3.08;;;0.90;;
51326;SDS011;37412;52.836;6.362;2023-04-23T13:56:28;2.95;;;0.90;;
51326;SDS011;37412;52.836;6.362;2023-04-23T13:59:14;2.63;;;1.10;;
51326;SDS011;37412;52.836;6.362;2023-04-23T14:02:00;4.72;;;1.30;;
51326;SDS011;37412;52.836;6.362;2023-04-23T14:04:46;3.42;;;1.08;;
51326;SDS011;37412;52.836;6.362;2023-04-23T14:07:32;4.25;;;1.10;;
51326;SDS011;37412;52.836;6.362;2023-04-23T14:10:18;3.30;;;1.13;;
51326;SDS011;37412;52.836;6.362;2023-04-23T14:13:04;3.95;;;1.42;;
51326;SDS011;37412;52.836;6.362;2023-04-23T14:15:50;2.77;;;1.00;;
51326;SDS011;37412;52.836;6.362;2023-04-23T14:18:36;2.92;;;1.00;;
51326;SDS011;37412;52.836;6.362;2023-04-23T14:21:22;3.92;;;1.73;;
51326;SDS011;37412;52.836;6.362;2023-04-23T14:24:08;5.22;;;2.30;;
51326;SDS011;37412;52.836;6.362;2023-04-23T14:27:04;4.43;;;2.00;;
51326;SDS011;37412;52.836;6.362;2023-04-23T14:29:55;5.10;;;1.70;;
51326;SDS011;37412;52.836;6.362;2023-04-23T14:32:42;3.80;;;1.33;;
51326;SDS011;37412;52.836;6.362;2023-04-23T14:35:28;3.28;;;1.13;;
51326;SDS011;37412;52.836;6.362;2023-04-23T14:38:14;3.35;;;1.30;;
51326;SDS011;37412;52.836;6.362;2023-04-23T14:41:00;3.80;;;1.50;;
51326;SDS011;37412;52.836;6.362;2023-04-23T14:43:46;2.65;;;1.10;;
51326;SDS011;37412;52.836;6.362;2023-04-23T14:46:32;3.10;;;1.20;;
51326;SDS011;37412;52.836;6.362;2023-04-23T14:49:18;2.88;;;1.23;;
51326;SDS011;37412;52.836;6.362;2023-04-23T14:52:05;3.93;;;1.50;;
51326;SDS011;37412;52.836;6.362;2023-04-23T14:54:51;3.17;;;1.13;;
51326;SDS011;37412;52.836;6.362;2023-04-23T14:57:40;3.93;;;1.30;;
51326;SDS011;37412;52.836;6.362;2023-04-23T15:00:26;4.45;;;1.25;;
51326;SDS011;37412;52.836;6.362;2023-04-23T15:03:12;4.97;;;1.07;;
51326;SDS011;37412;52.836;6.362;2023-04-23T15:05:58;3.38;;;1.00;;
51326;SDS011;37412;52.836;6.362;2023-04-23T15:08:43;3.40;;;1.10;;
51326;SDS011;37412;52.836;6.362;2023-04-23T15:11:29;3.03;;;1.20;;
51326;SDS011;37412;52.836;6.362;2023-04-23T15:14:23;3.72;;;0.95;;
51326;SDS011;37412;52.836;6.362;2023-04-23T15:17:09;2.80;;;0.95;;
51326;SDS011;37412;52.836;6.362;2023-04-23T15:19:55;3.40;;;1.00;;
51326;SDS011;37412;52.836;6.362;2023-04-23T15:22:44;3.05;;;0.98;;
51326;SDS011;37412;52.836;6.362;2023-04-23T15:25:32;4.25;;;1.00;;
51326;SDS011;37412;52.836;6.362;2023-04-23T15:28:18;3.70;;;1.20;;
51326;SDS011;37412;52.836;6.362;2023-04-23T15:31:04;3.97;;;1.30;;
51326;SDS011;37412;52.836;6.362;2023-04-23T15:33:50;2.87;;;1.00;;
51326;SDS011;37412;52.836;6.362;2023-04-23T15:36:36;2.47;;;0.82;;
51326;SDS011;37412;52.836;6.362;2023-04-23T15:39:22;4.00;;;1.10;;
51326;SDS011;37412;52.836;6.362;2023-04-23T15:42:09;2.80;;;1.00;;
51326;SDS011;37412;52.836;6.362;2023-04-23T15:44:59;3.05;;;1.23;;
51326;SDS011;37412;52.836;6.362;2023-04-23T15:47:45;2.90;;;1.10;;
51326;SDS011;37412;52.836;6.362;2023-04-23T15:50:31;3.30;;;1.27;;
51326;SDS011;37412;52.836;6.362;2023-04-23T15:53:18;2.97;;;1.10;;
51326;SDS011;37412;52.836;6.362;2023-04-23T15:56:07;3.22;;;1.30;;
51326;SDS011;37412;52.836;6.362;2023-04-23T15:58:53;2.90;;;1.10;;
51326;SDS011;37412;52.836;6.362;2023-04-23T16:01:41;3.13;;;1.13;;
51326;SDS011;37412;52.836;6.362;2023-04-23T16:04:27;2.97;;;0.93;;
51326;SDS011;37412;52.836;6.362;2023-04-23T16:07:13;3.22;;;1.00;;
51326;SDS011;37412;52.836;6.362;2023-04-23T16:10:00;2.73;;;0.90;;
51326;SDS011;37412;52.836;6.362;2023-04-23T16:12:46;3.58;;;0.90;;
51326;SDS011;37412;52.836;6.362;2023-04-23T16:15:33;2.63;;;0.85;;
51326;SDS011;37412;52.836;6.362;2023-04-23T16:18:19;2.47;;;0.90;;
51326;SDS011;37412;52.836;6.362;2023-04-23T16:21:05;2.72;;;1.00;;
51326;SDS011;37412;52.836;6.362;2023-04-23T16:23:51;2.90;;;0.90;;
51326;SDS011;37412;52.836;6.362;2023-04-23T16:26:37;2.90;;;0.80;;
51326;SDS011;37412;52.836;6.362;2023-04-23T16:29:23;3.20;;;1.00;;
51326;SDS011;37412;52.836;6.362;2023-04-23T16:32:09;2.67;;;0.88;;